Time;durP1;ratioP1;P1;durP2;ratioP2;P2;SDS_P1;SDS_P2;PMS_P1;PMS_P2;Temp;Humidity;BMP_temperature;BMP_pressure;BME280_temperature;BME280_humidity;BME280_pressure;Samples;Min_cycle;Max_cycle;Signal;HPM_P1;HPM_P2
2023/10/24 00:01:33;;;;;;;1.42;1.40;;;12.60;99.90;;;;;;5024300;28;21643;-95
2023/10/24 00:04:00;;;;;;;1.48;1.40;;;12.50;99.90;;;;;;5019534;28;20131;-95
2023/10/24 00:06:26;;;;;;;1.52;1.42;;;12.50;99.90;;;;;;5044702;28;20045;-94
2023/10/24 00:08:51;;;;;;;1.30;1.30;;;12.00;99.90;;;;;;5020838;28;20049;-95
2023/10/24 00:11:17;;;;;;;1.10;1.10;;;12.20;99.90;;;;;;5047931;28;20047;-90
2023/10/24 00:13:43;;;;;;;1.23;1.23;;;12.30;99.90;;;;;;5011000;28;20041;-91
2023/10/24 00:16:08;;;;;;;1.42;1.38;;;12.10;99.90;;;;;;5016582;28;20061;-89
2023/10/24 00:18:34;;;;;;;1.70;1.60;;;12.60;99.90;;;;;;5029431;28;20037;-92
2023/10/24 00:21:00;;;;;;;1.27;1.27;;;12.50;99.90;;;;;;5014865;28;20043;-89
2023/10/24 00:23:37;;;;;;;1.20;1.20;;;12.70;99.90;;;;;;5032398;28;20133;-95
2023/10/24 00:26:03;;;;;;;1.40;1.40;;;12.30;99.90;;;;;;5012573;28;20540;-92
2023/10/24 00:28:29;;;;;;;1.30;1.30;;;12.00;99.90;;;;;;5027919;28;20044;-91
2023/10/24 00:30:55;;;;;;;1.63;1.52;;;12.20;99.90;;;;;;5030870;28;20048;-91
2023/10/24 00:33:24;;;;;;;1.20;1.20;;;12.10;99.90;;;;;;5035550;28;20054;-94
2023/10/24 00:35:49;;;;;;;1.23;1.23;;;12.70;99.90;;;;;;5014234;28;20044;-93
2023/10/24 00:38:15;;;;;;;1.50;1.40;;;12.70;99.90;;;;;;5037542;28;20111;-93
2023/10/24 00:40:45;;;;;;;1.52;1.42;;;12.80;99.90;;;;;;5021394;28;20052;-95
2023/10/24 00:43:11;;;;;;;1.10;1.10;;;12.40;99.90;;;;;;5020616;28;20499;-92
2023/10/24 00:45:46;;;;;;;1.20;1.20;;;12.00;99.90;;;;;;5035193;28;20040;-95
2023/10/24 00:48:12;;;;;;;1.30;1.30;;;12.00;99.90;;;;;;5022552;28;20052;-92
2023/10/24 00:50:38;;;;;;;1.10;1.10;;;12.80;99.90;;;;;;5021658;28;20094;-95
2023/10/24 00:53:07;;;;;;;1.55;1.45;;;12.40;99.90;;;;;;5018663;28;20053;-96
2023/10/24 00:55:38;;;;;;;1.50;1.40;;;12.30;99.90;;;;;;5022799;28;20067;-96
2023/10/24 00:58:05;;;;;;;1.30;1.30;;;12.00;99.90;;;;;;5015680;28;20052;-93
2023/10/24 01:00:31;;;;;;;1.15;1.15;;;12.50;99.90;;;;;;5020852;28;20098;-94
2023/10/24 01:03:02;;;;;;;1.30;1.30;;;12.30;99.90;;;;;;5044369;28;20041;-95
2023/10/24 01:05:28;;;;;;;1.38;1.35;;;12.80;99.90;;;;;;5034310;28;20042;-90
2023/10/24 01:07:54;;;;;;;1.30;1.30;;;12.40;99.90;;;;;;5013022;28;20045;-90
2023/10/24 01:10:20;;;;;;;1.00;1.00;;;12.10;99.90;;;;;;5030425;28;20052;-92
2023/10/24 01:12:46;;;;;;;1.52;1.42;;;12.70;99.90;;;;;;5036799;28;20044;-89
2023/10/24 01:15:17;;;;;;;1.50;1.40;;;12.20;99.90;;;;;;5040622;28;20068;-95
2023/10/24 01:17:50;;;;;;;1.30;1.30;;;12.80;99.90;;;;;;5027673;28;20045;-90
2023/10/24 01:20:16;;;;;;;1.33;1.33;;;12.30;99.90;;;;;;5030818;28;20048;-91
2023/10/24 01:22:44;;;;;;;1.05;1.05;;;12.80;99.90;;;;;;5019729;28;20049;-92
2023/10/24 01:25:13;;;;;;;1.30;1.30;;;12.70;99.90;;;;;;5054317;28;20639;-92
2023/10/24 01:27:51;;;;;;;;;;;;;;;;;;;;;
2023/10/24 01:30:17;;;;;;;1.20;1.20;;;12.30;99.90;;;;;;5054927;28;20064;-91
2023/10/24 01:32:43;;;;;;;1.42;1.33;;;12.20;99.90;;;;;;5037992;28;20044;-91
2023/10/24 01:35:10;;;;;;;1.25;1.25;;;12.60;99.90;;;;;;5022091;28;20044;-90
2023/10/24 01:37:35;;;;;;;1.27;1.27;;;12.70;99.90;;;;;;5038621;28;20075;-90
2023/10/24 01:40:03;;;;;;;1.30;1.30;;;12.80;99.90;;;;;;5024236;28;20080;-90
2023/10/24 01:42:29;;;;;;;1.30;1.30;;;12.90;99.90;;;;;;5028709;28;20044;-91
2023/10/24 01:44:57;;;;;;;1.30;1.30;;;12.60;99.90;;;;;;5039530;28;20603;-91
2023/10/24 01:47:23;;;;;;;1.40;1.38;;;12.80;99.90;;;;;;5040081;28;20498;-91
2023/10/24 01:49:48;;;;;;;1.45;1.40;;;12.20;99.90;;;;;;5033924;28;20047;-87
2023/10/24 01:52:14;;;;;;;1.20;1.20;;;12.10;99.90;;;;;;5032355;28;20510;-88
2023/10/24 01:54:40;;;;;;;1.20;1.20;;;12.70;99.90;;;;;;5045124;28;20490;-93
2023/10/24 01:57:05;;;;;;;1.20;1.20;;;12.60;99.90;;;;;;5026469;28;20049;-93
2023/10/24 01:59:37;;;;;;;1.33;1.33;;;12.60;99.90;;;;;;5043657;28;20049;-94
2023/10/24 02:02:03;;;;;;;1.30;1.30;;;12.70;99.90;;;;;;5030945;28;20091;-88
2023/10/24 02:04:29;;;;;;;1.33;1.33;;;12.30;99.90;;;;;;5049261;28;20119;-91
2023/10/24 02:06:55;;;;;;;1.75;1.65;;;12.40;99.90;;;;;;5039092;28;20656;-90
2023/10/24 02:09:20;;;;;;;1.48;1.40;;;13.00;99.90;;;;;;5040533;28;20068;-92
2023/10/24 02:11:46;;;;;;;1.20;1.20;;;12.60;99.90;;;;;;5021140;28;20057;-88
2023/10/24 02:14:12;;;;;;;1.17;1.17;;;12.50;99.90;;;;;;5032809;28;20076;-88
2023/10/24 02:16:37;;;;;;;1.20;1.20;;;12.70;99.90;;;;;;5050863;28;20052;-89
2023/10/24 02:19:03;;;;;;;1.38;1.35;;;13.00;99.90;;;;;;5021998;28;20056;-87
2023/10/24 02:21:29;;;;;;;1.20;1.20;;;13.00;99.90;;;;;;5035104;28;20049;-93
2023/10/24 02:23:54;;;;;;;1.30;1.30;;;12.90;99.90;;;;;;5024883;28;20087;-92
2023/10/24 02:26:20;;;;;;;1.20;1.20;;;13.00;99.90;;;;;;5025360;28;20048;-90
2023/10/24 02:28:46;;;;;;;1.20;1.20;;;13.10;99.90;;;;;;5037070;28;20047;-90
2023/10/24 02:31:11;;;;;;;1.30;1.30;;;12.70;99.90;;;;;;5029286;28;20040;-91
2023/10/24 02:33:39;;;;;;;1.67;1.58;;;12.60;99.90;;;;;;5024853;28;20623;-90
2023/10/24 02:36:14;;;;;;;1.13;1.13;;;12.90;99.90;;;;;;5021616;28;20044;-89
2023/10/24 02:38:39;;;;;;;1.60;1.50;;;12.90;99.90;;;;;;5026338;28;20186;-89
2023/10/24 02:41:05;;;;;;;1.40;1.40;;;13.10;99.90;;;;;;5075203;28;20481;-89
2023/10/24 02:43:31;;;;;;;1.20;1.20;;;12.20;99.90;;;;;;5026708;28;20041;-88
2023/10/24 02:45:58;;;;;;;1.40;1.40;;;13.10;99.90;;;;;;5046378;28;20044;-89
2023/10/24 02:48:24;;;;;;;1.30;1.30;;;12.20;99.90;;;;;;5051131;28;20087;-88
2023/10/24 02:50:54;;;;;;;1.48;1.40;;;12.20;99.90;;;;;;5033861;28;20060;-85
2023/10/24 02:53:35;;;;;;;1.30;1.30;;;12.70;99.90;;;;;;5030269;28;20052;-87
2023/10/24 02:56:05;;;;;;;1.25;1.25;;;12.40;99.90;;;;;;5033552;28;20045;-88
2023/10/24 02:58:31;;;;;;;1.20;1.20;;;12.70;99.90;;;;;;5016941;28;20072;-87
2023/10/24 03:01:04;;;;;;;1.13;1.13;;;13.00;99.90;;;;;;5031376;28;20431;-89
2023/10/24 03:03:30;;;;;;;1.45;1.42;;;12.80;99.90;;;;;;5010724;28;20037;-87
2023/10/24 03:05:56;;;;;;;1.20;1.20;;;13.10;99.90;;;;;;5039873;28;20049;-88
2023/10/24 03:08:22;;;;;;;1.20;1.20;;;12.70;99.90;;;;;;5034125;28;20386;-88
2023/10/24 03:10:48;;;;;;;1.25;1.25;;;13.30;99.90;;;;;;5038560;28;20040;-86
2023/10/24 03:13:13;;;;;;;1.20;1.20;;;12.90;99.90;;;;;;5029712;28;20075;-88
2023/10/24 03:15:41;;;;;;;1.30;1.30;;;13.30;99.90;;;;;;5034114;28;20072;-89
2023/10/24 03:18:06;;;;;;;1.25;1.25;;;13.20;99.90;;;;;;5019236;28;20173;-86
2023/10/24 03:20:33;;;;;;;1.55;1.45;;;13.20;99.90;;;;;;5040257;28;20045;-87
2023/10/24 03:22:58;;;;;;;1.58;1.48;;;13.30;99.90;;;;;;5037260;28;20072;-87
2023/10/24 03:25:24;;;;;;;1.30;1.30;;;12.50;99.90;;;;;;5029068;28;20078;-88
2023/10/24 03:27:54;;;;;;;1.55;1.45;;;12.80;99.90;;;;;;5015277;28;20037;-86
2023/10/24 03:30:23;;;;;;;1.63;1.52;;;12.50;99.90;;;;;;5032318;28;20045;-86
2023/10/24 03:32:49;;;;;;;1.60;1.50;;;12.50;99.90;;;;;;5062657;28;20597;-87
2023/10/24 03:35:15;;;;;;;1.50;1.40;;;13.10;99.90;;;;;;5032416;28;20513;-88
2023/10/24 03:37:41;;;;;;;1.67;1.58;;;13.50;99.90;;;;;;5037302;28;20036;-87
2023/10/24 03:40:10;;;;;;;1.58;1.48;;;12.90;99.90;;;;;;5037163;28;20127;-86
2023/10/24 03:42:36;;;;;;;1.70;1.60;;;13.50;99.90;;;;;;5031888;28;20075;-86
2023/10/24 03:45:02;;;;;;;1.60;1.50;;;12.90;99.90;;;;;;5064814;28;20049;-86
2023/10/24 03:47:27;;;;;;;1.98;1.88;;;13.10;99.90;;;;;;5034240;28;20530;-86
2023/10/24 03:49:53;;;;;;;1.85;1.75;;;13.00;99.90;;;;;;5028197;28;20135;-86
2023/10/24 03:52:19;;;;;;;1.90;1.80;;;12.80;99.90;;;;;;5021335;28;20048;-88
2023/10/24 03:54:44;;;;;;;1.70;1.60;;;12.80;99.90;;;;;;5026653;28;20039;-88
2023/10/24 03:57:16;;;;;;;1.80;1.70;;;13.70;99.90;;;;;;5028047;28;20072;-94
2023/10/24 03:59:42;;;;;;;2.08;1.98;;;13.50;99.90;;;;;;5018624;28;20065;-92
2023/10/24 04:02:08;;;;;;;2.22;2.13;;;13.60;99.90;;;;;;5024786;28;20075;-93
2023/10/24 04:04:33;;;;;;;1.90;1.80;;;13.60;99.90;;;;;;5017865;28;20064;-94
2023/10/24 04:06:59;;;;;;;2.10;2.00;;;12.80;99.90;;;;;;5024964;28;20045;-91
2023/10/24 04:09:25;;;;;;;2.20;2.10;;;13.40;99.90;;;;;;5033330;28;20091;-92
2023/10/24 04:11:50;;;;;;;2.20;2.10;;;13.60;99.90;;;;;;5039802;28;20095;-91
2023/10/24 04:14:16;;;;;;;1.90;1.80;;;12.90;99.90;;;;;;5020542;28;20051;-92
2023/10/24 04:16:42;;;;;;;2.20;2.10;;;13.60;99.90;;;;;;5034497;28;20490;-93
2023/10/24 04:19:07;;;;;;;2.20;2.10;;;13.00;99.90;;;;;;5018936;28;20049;-90
2023/10/24 04:21:33;;;;;;;2.00;1.90;;;12.80;99.90;;;;;;5035924;28;20086;-92
2023/10/24 04:23:59;;;;;;;2.30;2.20;;;13.50;99.90;;;;;;5035175;28;20040;-93
2023/10/24 04:26:25;;;;;;;2.10;2.00;;;13.50;99.90;;;;;;5035390;28;20049;-93
2023/10/24 04:28:53;;;;;;;2.47;2.38;;;13.20;99.90;;;;;;5021135;28;20485;-93
2023/10/24 04:31:51;;;;;;;2.05;1.95;;;13.40;99.90;;;;;;5040373;28;20060;-95
2023/10/24 04:34:20;;;;;;;2.40;2.30;;;13.20;99.90;;;;;;5013139;28;20500;-96
2023/10/24 04:36:46;;;;;;;2.70;2.60;;;13.30;99.90;;;;;;5021960;28;20076;-93
2023/10/24 04:39:14;;;;;;;2.30;2.20;;;13.50;99.90;;;;;;5016067;28;20084;-94
2023/10/24 04:41:40;;;;;;;2.30;2.20;;;13.60;99.90;;;;;;5025818;28;20055;-91
2023/10/24 04:44:06;;;;;;;2.33;2.22;;;13.50;99.90;;;;;;5037413;28;20109;-90
2023/10/24 04:46:32;;;;;;;2.40;2.30;;;13.50;99.90;;;;;;5036920;28;20167;-91
2023/10/24 04:48:57;;;;;;;2.42;2.33;;;13.20;99.90;;;;;;5025465;28;20667;-91
2023/10/24 04:51:23;;;;;;;2.33;2.22;;;12.90;99.90;;;;;;5050308;28;20059;-91
2023/10/24 04:53:50;;;;;;;2.70;2.60;;;13.40;99.90;;;;;;5024276;28;20045;-94
2023/10/24 04:56:15;;;;;;;2.13;2.03;;;12.90;99.90;;;;;;5016534;28;20793;-89
2023/10/24 04:58:41;;;;;;;2.70;2.60;;;13.30;99.90;;;;;;5018705;28;20125;-94
2023/10/24 05:01:08;;;;;;;2.70;2.60;;;13.00;99.90;;;;;;5050317;28;20557;-90
2023/10/24 05:03:35;;;;;;;2.42;2.33;;;13.30;99.90;;;;;;5020989;28;20048;-88
2023/10/24 05:06:01;;;;;;;2.53;2.42;;;13.00;99.90;;;;;;5040386;28;20041;-91
2023/10/24 05:08:26;;;;;;;2.35;2.25;;;13.50;99.90;;;;;;5032719;28;20044;-89
2023/10/24 05:10:52;;;;;;;2.63;2.53;;;13.40;99.90;;;;;;5033830;28;20057;-91
2023/10/24 05:13:18;;;;;;;2.72;2.63;;;13.40;99.90;;;;;;5060675;28;20040;-90
2023/10/24 05:15:45;;;;;;;2.55;2.45;;;13.00;99.90;;;;;;5023730;28;20666;-93
2023/10/24 05:18:11;;;;;;;2.45;2.35;;;13.00;99.90;;;;;;5022952;28;20045;-89
2023/10/24 05:20:38;;;;;;;2.80;2.70;;;13.30;99.90;;;;;;5035334;28;20448;-89
2023/10/24 05:23:04;;;;;;;2.45;2.35;;;13.20;99.90;;;;;;5021110;28;20045;-89
2023/10/24 05:25:30;;;;;;;2.45;2.35;;;13.00;99.90;;;;;;5036364;28;20489;-92
2023/10/24 05:27:56;;;;;;;2.60;2.50;;;13.10;99.90;;;;;;5024107;28;20037;-87
2023/10/24 05:30:21;;;;;;;2.65;2.55;;;13.20;99.90;;;;;;5034581;28;20056;-89
2023/10/24 05:32:47;;;;;;;2.75;2.65;;;13.10;99.90;;;;;;5035556;28;20041;-89
2023/10/24 05:35:13;;;;;;;2.55;2.45;;;13.30;99.90;;;;;;5022674;28;20424;-91
2023/10/24 05:37:39;;;;;;;2.38;2.28;;;13.10;99.90;;;;;;5036368;28;20047;-94
2023/10/24 05:40:06;;;;;;;2.53;2.42;;;13.30;99.90;;;;;;5025999;28;20083;-92
2023/10/24 05:43:01;;;;;;;2.42;2.33;;;13.00;99.90;;;;;;5053245;28;20520;-96
2023/10/24 05:45:30;;;;;;;2.75;2.65;;;13.00;99.90;;;;;;5018786;28;20073;-95
2023/10/24 05:47:55;;;;;;;2.45;2.35;;;13.00;99.90;;;;;;5028196;28;20096;-90
2023/10/24 05:50:21;;;;;;;2.50;2.40;;;13.10;99.90;;;;;;5038044;28;20583;-94
2023/10/24 05:52:47;;;;;;;2.50;2.40;;;12.90;99.90;;;;;;5024427;28;20079;-92
2023/10/24 05:55:13;;;;;;;2.55;2.45;;;13.00;99.90;;;;;;5027385;28;20064;-96
2023/10/24 05:57:41;;;;;;;2.42;2.33;;;13.20;99.90;;;;;;5022651;28;20037;-92
2023/10/24 06:00:07;;;;;;;2.50;2.40;;;12.90;99.90;;;;;;5025865;28;20083;-93
2023/10/24 06:02:36;;;;;;;2.80;2.70;;;13.00;99.90;;;;;;5040691;28;20048;-92
2023/10/24 06:05:02;;;;;;;2.45;2.35;;;12.90;99.90;;;;;;5027982;28;20052;-93
2023/10/24 06:07:28;;;;;;;2.38;2.28;;;12.90;99.90;;;;;;5024790;28;20126;-92
2023/10/24 06:09:56;;;;;;;2.53;2.42;;;13.00;99.90;;;;;;5045904;28;20106;-95
2023/10/24 06:12:22;;;;;;;2.60;2.50;;;12.90;99.90;;;;;;5017459;28;20056;-91
2023/10/24 06:14:48;;;;;;;2.50;2.40;;;12.90;99.90;;;;;;5040306;28;20045;-94
2023/10/24 06:17:17;;;;;;;2.20;2.10;;;13.00;99.90;;;;;;5034350;28;20042;-89
2023/10/24 06:19:45;;;;;;;2.47;2.38;;;13.00;99.90;;;;;;5022850;28;20056;-95
2023/10/24 06:22:11;;;;;;;2.30;2.20;;;13.10;99.90;;;;;;5030928;28;20701;-91
2023/10/24 06:24:36;;;;;;;2.40;2.30;;;13.00;99.90;;;;;;5040861;28;20048;-91
2023/10/24 06:27:02;;;;;;;2.40;2.30;;;12.90;99.90;;;;;;5039437;28;20060;-93
2023/10/24 06:29:31;;;;;;;2.17;2.08;;;13.10;99.90;;;;;;5027870;28;20500;-91
2023/10/24 06:32:02;;;;;;;2.30;2.20;;;12.90;99.90;;;;;;5024179;28;20097;-92
2023/10/24 06:34:28;;;;;;;2.00;1.90;;;13.10;99.90;;;;;;5007356;28;20033;-95
2023/10/24 06:36:56;;;;;;;2.30;2.20;;;13.00;99.90;;;;;;5024764;28;20509;-96
2023/10/24 06:39:22;;;;;;;2.00;1.90;;;12.90;99.90;;;;;;5025207;28;20056;-91
2023/10/24 06:41:49;;;;;;;2.30;2.20;;;13.10;99.90;;;;;;5027082;28;20045;-94
2023/10/24 06:44:27;;;;;;;2.13;2.03;;;12.90;99.90;;;;;;5031006;28;20116;-95
2023/10/24 06:46:58;;;;;;;2.00;1.90;;;13.00;99.90;;;;;;5016269;28;20124;-96
2023/10/24 06:49:33;;;;;;;1.90;1.80;;;12.90;99.90;;;;;;5027259;28;20041;-90
2023/10/24 06:51:58;;;;;;;2.03;1.92;;;13.00;99.90;;;;;;5024060;28;20049;-90
2023/10/24 06:54:24;;;;;;;2.05;1.95;;;13.00;99.90;;;;;;5028027;28;20068;-95
2023/10/24 06:56:54;;;;;;;2.35;2.25;;;12.80;99.90;;;;;;5021673;28;20479;-95
2023/10/24 06:59:22;;;;;;;2.30;2.20;;;13.00;99.90;;;;;;5057563;28;20534;-94
2023/10/24 07:02:19;;;;;;;2.17;2.08;;;12.90;99.90;;;;;;5028362;28;20041;-96
2023/10/24 07:04:54;;;;;;;2.38;2.28;;;13.00;99.90;;;;;;5056746;28;20091;-96
2023/10/24 07:07:27;;;;;;;2.10;2.00;;;12.90;99.90;;;;;;5030133;28;20036;-96
2023/10/24 07:09:53;;;;;;;2.10;2.00;;;13.00;99.90;;;;;;5038460;28;20041;-92
2023/10/24 07:12:18;;;;;;;1.85;1.75;;;12.80;99.90;;;;;;5023697;28;20051;-90
2023/10/24 07:14:44;;;;;;;2.03;1.92;;;13.10;99.90;;;;;;5025213;28;20045;-89
2023/10/24 07:17:25;;;;;;;2.00;1.90;;;12.90;99.90;;;;;;5040774;28;20061;-94
2023/10/24 07:20:17;;;;;;;1.98;1.88;;;13.10;99.90;;;;;;5027100;28;20100;-94
2023/10/24 07:22:46;;;;;;;1.90;1.80;;;12.90;99.90;;;;;;5044664;28;20043;-96
2023/10/24 07:25:11;;;;;;;1.83;1.73;;;13.10;99.90;;;;;;5036087;28;20086;-94
2023/10/24 07:27:40;;;;;;;1.88;1.77;;;13.00;99.90;;;;;;5058909;28;20040;-96
2023/10/24 07:30:12;;;;;;;1.73;1.63;;;12.90;99.90;;;;;;5043409;28;20049;-96
2023/10/24 07:32:41;;;;;;;1.77;1.67;;;13.00;99.90;;;;;;5042688;28;20052;-95
2023/10/24 07:35:58;;;;;;;;;;;;;;;;;;;;;
2023/10/24 07:38:30;;;;;;;2.03;1.92;;;13.00;99.90;;;;;;5057790;28;20041;-93
2023/10/24 07:40:55;;;;;;;2.05;1.95;;;12.80;99.90;;;;;;5041808;28;20048;-94
2023/10/24 07:43:36;;;;;;;1.77;1.67;;;13.00;99.90;;;;;;5090213;28;20634;-95
2023/10/24 07:46:05;;;;;;;1.95;1.85;;;12.90;99.90;;;;;;5058681;28;20867;-95
2023/10/24 07:48:56;;;;;;;1.85;1.75;;;12.90;99.90;;;;;;5044631;28;20055;-92
2023/10/24 07:51:51;;;;;;;2.15;2.05;;;13.00;99.90;;;;;;5076126;28;20528;-96
2023/10/24 07:54:25;;;;;;;2.05;1.95;;;13.00;99.90;;;;;;5034852;28;20406;-93
2023/10/24 07:56:51;;;;;;;1.85;1.75;;;13.00;99.90;;;;;;5042177;28;20136;-94
2023/10/24 07:59:18;;;;;;;1.95;1.85;;;13.00;99.90;;;;;;5060901;28;20091;-95
2023/10/24 08:01:44;;;;;;;1.75;1.65;;;12.90;99.90;;;;;;5042060;28;20206;-94
2023/10/24 08:04:13;;;;;;;1.65;1.55;;;12.90;99.90;;;;;;5040957;28;20052;-96
2023/10/24 08:06:41;;;;;;;1.83;1.73;;;13.00;99.90;;;;;;5057388;28;20047;-93
2023/10/24 08:09:10;;;;;;;1.92;1.83;;;13.10;99.90;;;;;;5040620;28;20044;-94
2023/10/24 08:22:33;;;;;;;2.20;2.10;;;12.90;99.90;;;;;;5075299;28;20043;-90
2023/10/24 08:24:59;;;;;;;1.88;1.77;;;13.00;99.90;;;;;;5037903;28;20411;-95
2023/10/24 08:28:25;;;;;;;1.48;1.42;;;12.90;99.90;;;;;;5061618;28;20438;-96
2023/10/24 08:30:59;;;;;;;1.75;1.65;;;12.90;99.90;;;;;;5042744;28;20045;-96
2023/10/24 08:33:34;;;;;;;1.52;1.48;;;12.90;99.90;;;;;;5043439;28;20048;-92
2023/10/24 08:36:00;;;;;;;1.77;1.67;;;13.00;99.90;;;;;;5057861;28;20092;-93
2023/10/24 08:38:28;;;;;;;1.90;1.80;;;13.00;99.90;;;;;;5043385;28;20040;-96
2023/10/24 08:41:22;;;;;;;1.85;1.75;;;12.90;99.90;;;;;;5020480;28;20056;-96
2023/10/24 08:43:49;;;;;;;1.73;1.63;;;13.00;99.90;;;;;;5034075;28;20063;-91
2023/10/24 08:46:29;;;;;;;2.00;1.90;;;13.10;99.90;;;;;;5018558;28;20045;-94
2023/10/24 08:48:56;;;;;;;1.75;1.65;;;13.10;99.90;;;;;;5053566;28;20045;-90
2023/10/24 08:51:21;;;;;;;1.80;1.70;;;13.00;99.90;;;;;;5022367;28;20044;-93
2023/10/24 08:53:47;;;;;;;1.70;1.60;;;13.10;99.90;;;;;;5038877;28;20041;-91
2023/10/24 08:56:16;;;;;;;2.03;1.92;;;13.00;99.90;;;;;;5023704;28;20494;-91
2023/10/24 08:58:45;;;;;;;1.90;1.80;;;13.10;99.90;;;;;;5034842;28;20037;-92
2023/10/24 09:01:20;;;;;;;1.75;1.65;;;13.10;99.90;;;;;;5040701;28;20505;-96
2023/10/24 09:04:05;;;;;;;1.73;1.63;;;13.10;99.90;;;;;;5017838;28;20041;-93
2023/10/24 09:06:43;;;;;;;1.75;1.65;;;13.10;99.90;;;;;;5042218;28;20502;-96
2023/10/24 09:09:19;;;;;;;1.77;1.67;;;13.10;99.90;;;;;;5022765;28;20636;-95
2023/10/24 09:12:05;;;;;;;1.75;1.65;;;13.20;99.90;;;;;;5019988;28;21751;-91
2023/10/24 09:15:18;;;;;;;1.65;1.55;;;13.20;99.90;;;;;;5037667;28;20470;-95
2023/10/24 09:17:46;;;;;;;1.50;1.40;;;13.30;99.90;;;;;;5020824;28;20080;-96
2023/10/24 09:20:12;;;;;;;1.40;1.40;;;13.30;99.90;;;;;;5035591;28;20495;-91
2023/10/24 09:22:43;;;;;;;1.20;1.20;;;13.30;99.90;;;;;;5020340;28;20056;-90
2023/10/24 09:25:19;;;;;;;1.20;1.20;;;13.30;99.90;;;;;;5038096;28;20513;-93
2023/10/24 09:27:46;;;;;;;1.20;1.20;;;13.30;99.90;;;;;;5019064;28;20049;-90
2023/10/24 09:30:13;;;;;;;1.30;1.30;;;13.30;99.90;;;;;;5022504;28;20049;-86
2023/10/24 09:32:44;;;;;;;1.50;1.40;;;13.30;99.90;;;;;;5019887;28;20075;-95
2023/10/24 09:35:13;;;;;;;1.30;1.30;;;13.30;99.90;;;;;;5024809;28;20087;-92
2023/10/24 09:37:49;;;;;;;1.50;1.40;;;13.20;99.90;;;;;;5018488;28;20040;-96
2023/10/24 09:40:15;;;;;;;1.63;1.52;;;13.20;99.90;;;;;;5022019;28;20051;-84
2023/10/24 09:42:49;;;;;;;1.45;1.40;;;13.20;99.90;;;;;;5029207;28;20037;-93
2023/10/24 09:45:19;;;;;;;1.50;1.40;;;13.20;99.90;;;;;;5039513;28;20052;-96
2023/10/24 09:47:47;;;;;;;1.60;1.50;;;13.20;99.90;;;;;;5032802;28;20097;-92
2023/10/24 09:50:14;;;;;;;1.50;1.40;;;13.20;99.90;;;;;;5021175;28;20045;-93
2023/10/24 09:52:43;;;;;;;1.52;1.42;;;13.20;99.90;;;;;;5066551;28;20055;-88
2023/10/24 09:55:09;;;;;;;1.30;1.30;;;13.20;99.90;;;;;;5019399;28;20128;-93
2023/10/24 09:57:39;;;;;;;1.60;1.50;;;13.20;99.90;;;;;;5037962;28;20048;-93
2023/10/24 10:00:10;;;;;;;1.70;1.60;;;13.20;99.90;;;;;;5016028;28;20436;-90
2023/10/24 10:02:41;;;;;;;1.40;1.40;;;13.30;99.90;;;;;;5020489;28;20088;-88
2023/10/24 10:05:18;;;;;;;1.63;1.52;;;13.30;99.90;;;;;;5031422;28;20132;-96
2023/10/24 10:07:50;;;;;;;1.60;1.50;;;13.30;99.90;;;;;;5026372;28;20064;-93
2023/10/24 10:10:24;;;;;;;1.70;1.60;;;13.30;99.90;;;;;;5019986;28;20056;-93
2023/10/24 10:12:59;;;;;;;1.80;1.70;;;13.40;99.90;;;;;;5013883;28;20068;-95
2023/10/24 10:16:02;;;;;;;1.30;1.30;;;13.40;99.90;;;;;;5036336;28;20041;-95
2023/10/24 10:18:51;;;;;;;1.70;1.60;;;13.50;99.90;;;;;;5027298;28;20060;-92
2023/10/24 10:21:47;;;;;;;1.67;1.58;;;13.60;99.90;;;;;;5041976;28;20387;-92
2023/10/24 10:24:30;;;;;;;1.55;1.45;;;13.60;99.90;;;;;;5045466;28;20652;-96
2023/10/24 10:27:36;;;;;;;1.60;1.50;;;13.60;99.90;;;;;;5059176;28;20090;-93
2023/10/24 10:33:46;;;;;;;2.00;1.90;;;13.70;99.90;;;;;;4976619;28;20539;-95
2023/10/24 10:36:18;;;;;;;1.65;1.55;;;13.70;99.90;;;;;;4994091;28;20049;-96
2023/10/24 10:39:00;;;;;;;1.60;1.50;;;13.80;99.90;;;;;;5031401;28;20045;-96
2023/10/24 10:41:37;;;;;;;1.70;1.60;;;13.80;99.90;;;;;;5054942;28;20044;-95
2023/10/24 10:44:38;;;;;;;1.60;1.50;;;13.90;99.90;;;;;;5020829;28;20139;-94
2023/10/24 10:47:25;;;;;;;1.75;1.65;;;13.90;99.90;;;;;;5023586;28;20049;-96
2023/10/24 10:49:56;;;;;;;1.70;1.60;;;14.00;99.90;;;;;;5019296;28;20048;-95
2023/10/24 10:52:58;;;;;;;1.52;1.42;;;14.00;99.90;;;;;;5018312;28;20119;-92
2023/10/24 10:55:55;;;;;;;1.35;1.33;;;14.20;99.90;;;;;;5025162;28;20140;-90
2023/10/24 10:58:54;;;;;;;1.70;1.60;;;14.30;99.90;;;;;;5016903;28;20067;-90
2023/10/24 11:01:41;;;;;;;1.67;1.58;;;14.30;99.90;;;;;;5013334;28;20060;-95
2023/10/24 11:04:16;;;;;;;1.75;1.65;;;14.40;99.90;;;;;;5031593;28;20148;-91
2023/10/24 11:07:21;;;;;;;1.85;1.75;;;14.40;99.90;;;;;;5014807;28;20044;-91
2023/10/24 11:09:56;;;;;;;2.00;1.90;;;14.60;99.90;;;;;;5014257;28;20106;-92
2023/10/24 11:12:28;;;;;;;1.98;1.88;;;14.70;99.90;;;;;;5017435;28;20044;-94
2023/10/24 11:15:10;;;;;;;1.70;1.60;;;14.90;99.90;;;;;;5021293;28;20040;-94
2023/10/24 11:17:36;;;;;;;1.73;1.63;;;14.80;99.90;;;;;;5021513;28;20057;-88
2023/10/24 11:20:15;;;;;;;1.55;1.45;;;14.80;99.90;;;;;;5016005;28;20044;-87
2023/10/24 11:22:41;;;;;;;1.23;1.23;;;14.80;99.90;;;;;;5041585;28;20049;-94
2023/10/24 11:25:14;;;;;;;1.13;1.13;;;14.90;99.90;;;;;;5017921;28;20098;-94
2023/10/24 11:27:43;;;;;;;1.15;1.15;;;15.00;99.90;;;;;;5022941;28;20044;-90
2023/10/24 11:30:09;;;;;;;1.27;1.27;;;15.10;99.90;;;;;;5015942;28;20123;-92
2023/10/24 11:32:35;;;;;;;1.23;1.23;;;15.20;99.90;;;;;;5041876;28;20064;-89
2023/10/24 11:35:04;;;;;;;1.25;1.25;;;15.30;99.90;;;;;;5015389;28;20064;-89
2023/10/24 11:37:30;;;;;;;1.10;1.10;;;15.50;99.90;;;;;;5028206;28;20151;-92
2023/10/24 11:40:09;;;;;;;1.02;1.02;;;15.40;99.90;;;;;;5025203;28;20131;-93
2023/10/24 11:42:35;;;;;;;1.27;1.27;;;15.20;99.90;;;;;;5020101;28;20513;-86
2023/10/24 11:45:01;;;;;;;1.60;1.50;;;15.20;99.90;;;;;;5034867;28;20044;-92
2023/10/24 11:47:39;;;;;;;1.40;1.35;;;15.30;99.90;;;;;;5037696;28;20186;-91
2023/10/24 11:50:05;;;;;;;1.20;1.20;;;15.70;99.90;;;;;;5021686;28;20106;-89
2023/10/24 11:52:31;;;;;;;1.30;1.30;;;16.00;99.90;;;;;;5028344;28;20090;-87
2023/10/24 11:54:57;;;;;;;1.10;1.10;;;16.10;99.90;;;;;;5009964;28;20603;-90
2023/10/24 11:57:23;;;;;;;0.70;0.70;;;16.00;99.90;;;;;;5038613;28;20085;-93
2023/10/24 11:59:57;;;;;;;0.80;0.80;;;15.70;99.90;;;;;;5022550;28;20033;-93
2023/10/24 12:02:22;;;;;;;;;;;15.60;99.90;;;;;;5034107;28;20060;-93
2023/10/24 12:04:53;;;;;;;1.10;1.10;;;15.60;99.90;;;;;;5024951;28;19920;-93
2023/10/24 12:07:19;;;;;;;0.80;0.80;;;15.50;99.90;;;;;;5035781;28;20072;-89
2023/10/24 12:09:45;;;;;;;0.90;0.90;;;15.30;99.90;;;;;;5031102;28;20077;-86
2023/10/24 12:12:13;;;;;;;0.90;0.90;;;15.20;99.90;;;;;;5016117;28;20336;-91
2023/10/24 12:14:42;;;;;;;1.15;1.15;;;15.10;99.90;;;;;;5025760;28;20044;-91
2023/10/24 12:17:11;;;;;;;1.05;1.05;;;15.00;99.90;;;;;;5033821;28;20040;-87
2023/10/24 12:19:40;;;;;;;1.15;1.15;;;14.80;99.90;;;;;;5027459;28;20052;-90
2023/10/24 12:22:05;;;;;;;1.10;1.10;;;14.80;99.90;;;;;;5019410;28;20055;-88
2023/10/24 12:24:31;;;;;;;1.20;1.20;;;14.70;99.90;;;;;;5033214;28;20512;-88
2023/10/24 12:27:18;;;;;;;1.20;1.20;;;14.70;99.90;;;;;;5019577;28;20079;-95
2023/10/24 12:29:46;;;;;;;1.27;1.27;;;14.70;99.90;;;;;;5030446;28;20049;-91
2023/10/24 12:32:11;;;;;;;1.35;1.33;;;14.80;99.90;;;;;;5011824;28;20190;-92
2023/10/24 12:34:41;;;;;;;1.25;1.25;;;14.90;99.90;;;;;;5020545;28;20054;-91
2023/10/24 12:37:07;;;;;;;1.35;1.35;;;15.00;99.90;;;;;;5041351;28;20101;-91
2023/10/24 12:39:32;;;;;;;1.40;1.35;;;15.00;99.90;;;;;;5019098;28;20045;-88
2023/10/24 12:42:01;;;;;;;1.38;1.35;;;15.00;99.90;;;;;;5018251;28;20041;-89
2023/10/24 12:44:30;;;;;;;1.33;1.33;;;15.10;99.90;;;;;;5015492;28;20133;-91
2023/10/24 12:46:55;;;;;;;1.42;1.38;;;15.00;99.90;;;;;;5021078;28;20067;-89
2023/10/24 12:49:24;;;;;;;1.10;1.10;;;14.90;99.90;;;;;;5034759;28;20068;-92
2023/10/24 12:51:59;;;;;;;1.10;1.10;;;14.90;99.90;;;;;;5047345;28;20657;-95
2023/10/24 12:54:24;;;;;;;1.38;1.35;;;14.90;99.90;;;;;;5043020;28;20049;-89
2023/10/24 12:56:50;;;;;;;1.23;1.23;;;14.80;99.90;;;;;;5014087;28;20117;-89
2023/10/24 12:59:16;;;;;;;1.23;1.20;;;14.90;99.90;;;;;;5037832;28;20049;-89
2023/10/24 13:01:53;;;;;;;1.35;1.33;;;14.90;99.90;;;;;;5032296;28;20044;-92
2023/10/24 13:04:35;;;;;;;1.58;1.48;;;14.90;99.90;;;;;;5039095;28;20182;-92
2023/10/24 13:07:04;;;;;;;1.35;1.35;;;14.90;99.90;;;;;;5053442;28;20117;-94
2023/10/24 13:09:34;;;;;;;1.58;1.48;;;14.90;99.90;;;;;;5045406;28;20059;-94
2023/10/24 13:12:01;;;;;;;1.52;1.45;;;14.90;99.90;;;;;;5029550;28;20033;-92
2023/10/24 13:14:27;;;;;;;1.17;1.17;;;14.90;99.90;;;;;;5047498;28;20046;-87
2023/10/24 13:17:00;;;;;;;1.38;1.35;;;14.90;99.90;;;;;;5022346;28;20084;-90
2023/10/24 13:19:44;;;;;;;1.55;1.45;;;14.90;99.90;;;;;;5017861;28;20046;-93
2023/10/24 13:22:12;;;;;;;1.63;1.53;;;14.80;99.90;;;;;;5057124;28;20048;-93